Terminal Aerodrome Forecast
Issued by NWS

Home | Current Version | Previous Version | Text Only | Print | Product List | Glossary On
Versions: 1 2 3 4 5 6 7 8 9 10 11 12 13 14 15
000
FTUS41 KBOX 252329
TAFACK
TAF
KACK 252329Z 2600/2624 15020G29KT 2SM -SHRA BR OVC003 WS020/17055KT
     FM260300 15018G26KT 1/4SM -SHRA FG OVC003 WS020/18055KT
     FM260800 18011G18KT 1/2SM FG OVC001
     FM261300 21011KT 1SM BR OVC003
     FM261600 23015KT P6SM BKN015
     FM261800 23016KT P6SM SCT150=

USA.gov is the U.S. government's official web portal to all federal, state and local government web resources and services.